createdAt,value
2022-12-18T00:01:34.357Z,5.20
2022-12-18T00:04:04.770Z,5.26
2022-12-18T00:06:33.734Z,5.22
2022-12-18T00:09:02.747Z,5.13
2022-12-18T00:11:32.823Z,5.07
2022-12-18T00:14:02.725Z,4.90
2022-12-18T00:16:34.056Z,4.93
2022-12-18T00:19:02.644Z,4.86
2022-12-18T00:21:31.967Z,4.96
2022-12-18T00:24:01.333Z,4.96
2022-12-18T00:26:32.564Z,5.00
2022-12-18T00:29:04.105Z,4.91
2022-12-18T00:31:34.017Z,4.82
2022-12-18T00:34:02.264Z,4.80
2022-12-18T00:36:32.457Z,4.77
2022-12-18T00:39:01.462Z,4.78
2022-12-18T00:41:47.831Z,4.85
2022-12-18T00:44:19.109Z,4.74
2022-12-18T00:46:48.316Z,4.70
2022-12-18T00:49:16.861Z,4.59
2022-12-18T00:51:45.143Z,4.49
2022-12-18T00:54:16.005Z,4.52
2022-12-18T00:56:51.208Z,4.52
2022-12-18T00:59:21.250Z,4.41
2022-12-18T01:01:49.628Z,4.43
2022-12-18T01:04:17.762Z,4.47
2022-12-18T01:06:45.746Z,4.46
2022-12-18T01:09:14.124Z,4.30
2022-12-18T01:11:42.350Z,4.34
2022-12-18T01:14:11.046Z,4.32
2022-12-18T01:16:40.540Z,4.14
2022-12-18T01:19:08.767Z,4.15
2022-12-18T01:21:36.956Z,4.08
2022-12-18T01:24:05.205Z,4.03
2022-12-18T01:26:33.159Z,3.96
2022-12-18T01:29:01.124Z,3.78
2022-12-18T01:31:31.095Z,3.77
2022-12-18T01:34:03.505Z,3.72
2022-12-18T01:36:33.601Z,3.75
2022-12-18T01:39:03.816Z,3.76
2022-12-18T01:41:54.088Z,3.72
2022-12-18T01:44:55.758Z,3.80
2022-12-18T01:47:27.187Z,3.74
2022-12-18T01:49:58.031Z,3.78
2022-12-18T01:52:28.484Z,3.78
2022-12-18T01:54:57.783Z,3.70
2022-12-18T01:57:27.156Z,3.63
2022-12-18T01:59:59.068Z,3.68
2022-12-18T02:02:30.104Z,3.58
2022-12-18T02:05:01.322Z,3.50
2022-12-18T02:07:39.963Z,3.63
2022-12-18T02:10:17.333Z,3.50
2022-12-18T02:12:51.479Z,3.64
2022-12-18T02:15:26.580Z,3.66
2022-12-18T02:17:59.056Z,3.68
2022-12-18T02:20:37.225Z,3.55
2022-12-18T02:23:13.038Z,3.53
2022-12-18T02:26:02.713Z,3.47
2022-12-18T02:28:34.057Z,3.57
2022-12-18T02:31:06.803Z,3.56
2022-12-18T02:33:37.567Z,3.53
2022-12-18T02:36:07.708Z,3.52
2022-12-18T02:38:36.982Z,3.59
2022-12-18T02:41:07.880Z,3.62
2022-12-18T02:43:35.927Z,3.60
2022-12-18T02:46:33.095Z,3.50
2022-12-18T02:49:13.852Z,3.54
2022-12-18T02:51:50.064Z,3.53
2022-12-18T02:54:28.991Z,3.34
2022-12-18T02:57:01.604Z,3.36
2022-12-18T02:59:39.214Z,3.31
2022-12-18T03:02:17.880Z,3.37
2022-12-18T03:04:52.362Z,3.33
2022-12-18T03:07:26.040Z,3.43
2022-12-18T03:09:55.907Z,3.36
2022-12-18T03:12:32.484Z,3.34
2022-12-18T03:15:06.272Z,3.13
2022-12-18T03:17:35.785Z,3.28
2022-12-18T03:20:10.429Z,3.24
2022-12-18T03:22:40.612Z,3.21
2022-12-18T03:25:12.000Z,3.26
2022-12-18T03:27:48.530Z,3.21
2022-12-18T03:30:18.205Z,3.24
2022-12-18T03:32:51.277Z,3.31
2022-12-18T03:35:23.705Z,3.22
2022-12-18T03:37:52.066Z,3.24
2022-12-18T03:40:23.588Z,3.29
2022-12-18T03:42:59.197Z,3.36
2022-12-18T03:45:34.837Z,3.30
2022-12-18T03:48:08.026Z,3.29
2022-12-18T03:50:44.718Z,3.27
2022-12-18T03:53:25.265Z,3.18
2022-12-18T03:55:54.437Z,3.24
2022-12-18T03:58:27.162Z,3.28
2022-12-18T04:00:58.490Z,3.27
2022-12-18T04:03:28.248Z,3.27
2022-12-18T04:05:57.817Z,3.22
2022-12-18T04:08:26.986Z,3.30
2022-12-18T04:10:54.987Z,3.11
2022-12-18T04:13:31.478Z,3.08
2022-12-18T04:15:59.543Z,3.11
2022-12-18T04:18:27.520Z,2.96
2022-12-18T04:20:55.754Z,3.17
2022-12-18T04:23:23.784Z,3.13
2022-12-18T04:25:51.882Z,3.07
2022-12-18T04:28:19.850Z,3.09
2022-12-18T04:30:50.635Z,3.08
2022-12-18T04:33:18.662Z,3.05
2022-12-18T04:35:46.938Z,3.07
2022-12-18T04:38:15.685Z,3.03
2022-12-18T04:40:43.847Z,2.94
2022-12-18T04:43:11.983Z,3.00
2022-12-18T04:45:40.583Z,2.87
2022-12-18T04:48:10.500Z,2.84
2022-12-18T04:50:39.031Z,2.93
2022-12-18T04:53:07.296Z,2.90
2022-12-18T04:55:35.322Z,2.90
2022-12-18T04:58:03.287Z,2.97
2022-12-18T05:00:31.196Z,2.86
2022-12-18T05:02:59.248Z,2.85
2022-12-18T05:05:29.279Z,2.79
2022-12-18T05:07:57.296Z,2.87
2022-12-18T05:10:25.306Z,2.83
2022-12-18T05:13:02.440Z,2.80
2022-12-18T05:15:31.627Z,2.70
2022-12-18T05:18:00.393Z,2.64
2022-12-18T05:20:30.698Z,2.60
2022-12-18T05:22:59.409Z,2.47
2022-12-18T05:25:27.479Z,2.61
2022-12-18T05:27:55.514Z,2.65
2022-12-18T05:30:23.733Z,2.49
2022-12-18T05:32:51.807Z,2.44
2022-12-18T05:35:19.946Z,2.47
2022-12-18T05:37:49.384Z,2.53
2022-12-18T05:40:17.376Z,2.48
2022-12-18T05:42:45.388Z,2.44
2022-12-18T05:45:13.485Z,2.58
2022-12-18T05:47:41.497Z,2.58
2022-12-18T05:50:14.739Z,2.52
2022-12-18T05:52:48.056Z,2.50
2022-12-18T05:55:20.940Z,2.38
2022-12-18T05:57:50.916Z,2.42
2022-12-18T06:00:19.501Z,2.40
2022-12-18T06:02:49.576Z,2.35
2022-12-18T06:05:20.475Z,2.40
2022-12-18T06:07:52.132Z,2.37
2022-12-18T06:10:23.889Z,2.29
2022-12-18T06:12:52.085Z,2.28
2022-12-18T06:15:20.953Z,2.27
2022-12-18T06:20:42.295Z,2.28
2022-12-18T06:23:11.095Z,2.26
2022-12-18T06:25:58.273Z,2.27
2022-12-18T06:28:27.072Z,2.45
2022-12-18T06:33:40.007Z,2.36
2022-12-18T06:36:15.291Z,2.36
2022-12-18T06:38:45.710Z,2.41
2022-12-18T06:41:19.269Z,2.49
2022-12-18T06:43:49.953Z,2.40
2022-12-18T06:46:19.635Z,2.45
2022-12-18T06:48:57.143Z,2.55
2022-12-18T06:51:26.204Z,2.48
2022-12-18T06:53:54.640Z,2.50
2022-12-18T06:56:39.422Z,2.41
2022-12-18T06:59:08.059Z,2.51
2022-12-18T07:01:48.020Z,2.55
2022-12-18T07:04:23.543Z,2.57
2022-12-18T07:06:52.033Z,2.56
2022-12-18T07:09:20.988Z,2.51
2022-12-18T07:11:50.994Z,2.50
2022-12-18T07:14:25.445Z,2.47
2022-12-18T07:16:53.831Z,2.63
2022-12-18T07:19:36.604Z,2.60
2022-12-18T07:22:19.896Z,2.61
2022-12-18T07:25:01.880Z,2.52
2022-12-18T07:27:33.512Z,2.49
2022-12-18T07:32:57.819Z,2.31
2022-12-18T07:35:26.481Z,2.14
2022-12-18T07:37:54.974Z,2.19
2022-12-18T07:40:25.572Z,2.27
2022-12-18T07:42:55.494Z,2.28
2022-12-18T07:45:23.637Z,2.21
2022-12-18T07:47:51.855Z,2.21
2022-12-18T07:50:34.036Z,2.13
2022-12-18T07:53:04.679Z,2.16
2022-12-18T07:56:25.530Z,1.98
2022-12-18T07:59:01.416Z,2.08
2022-12-18T08:01:31.374Z,2.11
2022-12-18T08:04:00.033Z,2.05
2022-12-18T08:06:31.128Z,2.04
2022-12-18T08:12:05.890Z,1.98
2022-12-18T08:14:40.777Z,2.02
2022-12-18T08:17:23.125Z,1.99
2022-12-18T08:25:56.406Z,2.08
2022-12-18T08:32:07.187Z,2.09
2022-12-18T08:35:07.934Z,2.10
2022-12-18T08:43:33.060Z,2.10
2022-12-18T09:13:31.090Z,2.22
2022-12-18T09:16:13.341Z,2.32
2022-12-18T09:18:43.311Z,2.27
2022-12-18T09:21:23.504Z,2.41
2022-12-18T09:30:57.690Z,2.39
2022-12-18T09:34:19.968Z,2.55
2022-12-18T09:37:04.592Z,2.65
2022-12-18T09:39:35.526Z,2.53
2022-12-18T09:42:17.549Z,2.41
2022-12-18T09:44:54.427Z,2.50
2022-12-18T09:47:28.732Z,2.55
2022-12-18T09:50:03.075Z,2.52
2022-12-18T09:52:38.465Z,2.51
2022-12-18T09:55:32.209Z,2.55
2022-12-18T10:01:08.015Z,2.57
2022-12-18T10:03:50.370Z,2.50
2022-12-18T10:06:42.712Z,2.54
2022-12-18T10:09:28.228Z,2.64
2022-12-18T10:12:08.142Z,2.60
2022-12-18T10:20:42.644Z,2.81
2022-12-18T10:23:25.991Z,2.84
2022-12-18T10:26:14.188Z,2.78
2022-12-18T10:28:45.622Z,2.81
2022-12-18T10:31:27.746Z,2.85
2022-12-18T10:33:57.267Z,2.92
2022-12-18T10:36:26.649Z,2.94
2022-12-18T10:38:56.240Z,3.05
2022-12-18T10:41:46.829Z,2.98
2022-12-18T10:44:21.267Z,2.99
2022-12-18T10:46:53.920Z,2.93
2022-12-18T11:01:30.062Z,3.22
2022-12-18T11:07:10.184Z,3.09
2022-12-18T11:09:40.343Z,3.11
2022-12-18T11:12:21.072Z,3.13
2022-12-18T11:15:03.968Z,3.25
2022-12-18T11:17:36.002Z,2.99
2022-12-18T11:20:09.896Z,3.00
2022-12-18T11:22:42.066Z,2.98
2022-12-18T11:25:34.637Z,3.00
2022-12-18T11:28:08.402Z,3.07
2022-12-18T11:30:39.461Z,3.30
2022-12-18T11:33:12.448Z,3.12
2022-12-18T11:35:48.663Z,3.08
2022-12-18T11:38:25.693Z,3.25
2022-12-18T11:41:00.811Z,3.32
2022-12-18T11:43:35.192Z,3.33
2022-12-18T11:46:08.038Z,3.35
2022-12-18T11:48:44.197Z,3.32
2022-12-18T11:51:18.176Z,3.29
2022-12-18T11:53:57.942Z,3.26
2022-12-18T11:56:36.078Z,3.32
2022-12-18T11:59:11.183Z,3.39
2022-12-18T12:01:51.792Z,3.33
2022-12-18T12:04:50.977Z,3.35
2022-12-18T12:07:33.706Z,3.34
2022-12-18T12:10:18.972Z,3.43
2022-12-18T12:13:07.110Z,3.36
2022-12-18T12:15:47.463Z,3.38
2022-12-18T12:18:28.714Z,3.32
2022-12-18T12:21:05.829Z,3.40
2022-12-18T12:23:43.611Z,3.33
2022-12-18T12:26:15.005Z,3.32
2022-12-18T12:28:55.905Z,3.39
2022-12-18T12:31:37.174Z,3.35
2022-12-18T12:34:18.338Z,3.42
2022-12-18T12:37:02.459Z,3.42
2022-12-18T12:39:35.611Z,3.56
2022-12-18T12:42:23.775Z,3.46
2022-12-18T12:44:59.630Z,3.58
2022-12-18T12:47:35.173Z,3.69
2022-12-18T12:50:11.553Z,3.69
2022-12-18T12:52:45.508Z,3.57
2022-12-18T12:55:21.380Z,3.55
2022-12-18T12:58:03.423Z,3.63
2022-12-18T13:00:51.345Z,3.57
2022-12-18T13:03:38.425Z,3.57
2022-12-18T13:06:23.252Z,3.60
2022-12-18T13:09:10.263Z,3.64
2022-12-18T13:12:00.456Z,3.49
2022-12-18T13:14:42.572Z,3.62
2022-12-18T13:17:30.412Z,3.60
2022-12-18T13:20:18.753Z,3.38
2022-12-18T13:22:54.110Z,3.44
2022-12-18T13:25:40.858Z,3.36
2022-12-18T13:28:17.407Z,3.35
2022-12-18T13:30:57.702Z,3.32
2022-12-18T13:34:24.468Z,3.26
2022-12-18T13:36:39.763Z,3.32
2022-12-18T13:39:35.971Z,3.42
2022-12-18T13:42:58.866Z,3.45
2022-12-18T13:46:08.479Z,3.42
2022-12-18T13:48:41.698Z,3.47
2022-12-18T13:51:15.402Z,3.45
2022-12-18T13:53:47.344Z,3.46
2022-12-18T13:56:19.564Z,3.43
2022-12-18T13:59:09.190Z,3.38
2022-12-18T14:01:37.710Z,3.35
2022-12-18T14:04:12.578Z,3.23
2022-12-18T14:06:41.220Z,3.24
2022-12-18T14:09:21.592Z,3.40
2022-12-18T14:12:14.819Z,3.36
2022-12-18T14:14:47.508Z,3.25
2022-12-18T14:17:20.909Z,3.37
2022-12-18T14:19:52.664Z,3.35
2022-12-18T14:22:28.996Z,3.32
2022-12-18T14:25:18.337Z,3.21
2022-12-18T14:27:51.241Z,3.29
2022-12-18T14:30:33.493Z,3.27
2022-12-18T14:33:09.162Z,3.23
2022-12-18T14:35:41.825Z,3.21
2022-12-18T14:38:23.139Z,3.15
2022-12-18T14:40:55.958Z,3.19
2022-12-18T14:43:28.750Z,3.25
2022-12-18T14:45:58.713Z,3.11
2022-12-18T14:48:38.899Z,3.18
2022-12-18T14:51:10.557Z,3.06
2022-12-18T14:53:43.759Z,3.02
2022-12-18T14:56:21.203Z,2.97
2022-12-18T14:58:57.110Z,2.96
2022-12-18T15:01:30.094Z,2.99
2022-12-18T15:04:00.210Z,3.07
2022-12-18T15:06:35.348Z,3.07
2022-12-18T15:09:07.275Z,3.13
2022-12-18T15:11:46.113Z,3.03
2022-12-18T15:14:35.937Z,2.94
2022-12-18T15:17:09.743Z,2.94
2022-12-18T15:19:43.213Z,3.00
2022-12-18T15:22:22.645Z,2.96
2022-12-18T15:24:52.522Z,2.87
2022-12-18T15:27:42.263Z,2.84
2022-12-18T15:30:29.118Z,2.82
2022-12-18T15:33:26.736Z,2.90
2022-12-18T15:36:00.712Z,2.78
2022-12-18T15:38:29.687Z,2.79
2022-12-18T15:40:59.865Z,2.64
2022-12-18T15:43:38.649Z,2.75
2022-12-18T15:46:11.509Z,2.79
2022-12-18T15:48:44.340Z,2.71
2022-12-18T15:51:23.251Z,2.71
2022-12-18T15:53:56.386Z,2.64
2022-12-18T15:56:47.193Z,2.63
2022-12-18T15:59:18.205Z,2.56
2022-12-18T16:02:00.709Z,2.65
2022-12-18T16:10:11.335Z,2.68
2022-12-18T16:12:40.224Z,2.59
2022-12-18T16:15:11.280Z,2.72
2022-12-18T16:20:43.725Z,2.58
2022-12-18T16:23:25.574Z,2.69
2022-12-18T16:25:54.970Z,2.52
2022-12-18T16:28:23.154Z,2.56
2022-12-18T16:30:51.803Z,2.55
2022-12-18T16:33:21.341Z,2.48
2022-12-18T16:35:54.018Z,2.44
2022-12-18T16:38:22.792Z,2.42
2022-12-18T16:41:09.667Z,2.38
2022-12-18T16:43:38.330Z,2.45
2022-12-18T16:46:07.960Z,2.41
2022-12-18T16:48:55.734Z,2.48
2022-12-18T16:51:28.566Z,2.35
2022-12-18T16:56:43.107Z,2.41
2022-12-18T16:59:17.121Z,2.35
2022-12-18T17:01:48.970Z,2.30
2022-12-18T17:04:33.327Z,2.22
2022-12-18T17:07:08.234Z,2.24
2022-12-18T17:09:37.234Z,2.13
2022-12-18T17:12:11.036Z,2.19
2022-12-18T17:14:41.373Z,2.17
2022-12-18T17:17:21.295Z,2.06
2022-12-18T17:19:53.123Z,2.24
2022-12-18T17:22:24.431Z,2.19
2022-12-18T17:25:09.243Z,2.20
2022-12-18T17:27:37.766Z,2.13
2022-12-18T17:30:07.028Z,2.06
2022-12-18T17:32:35.208Z,2.07
2022-12-18T17:35:08.787Z,2.07
2022-12-18T17:37:46.873Z,2.13
2022-12-18T17:40:15.273Z,1.90
2022-12-18T17:42:43.848Z,2.15
2022-12-18T17:45:27.995Z,2.12
2022-12-18T17:48:00.049Z,2.03
2022-12-18T17:50:37.091Z,2.03
2022-12-18T17:53:20.065Z,1.96
2022-12-18T17:55:57.360Z,1.86
2022-12-18T17:58:26.589Z,1.81
2022-12-18T18:19:16.592Z,1.88
2022-12-18T18:22:20.285Z,1.69
2022-12-18T18:25:19.299Z,1.49
2022-12-18T18:27:50.243Z,1.59
2022-12-18T18:30:19.296Z,1.54
2022-12-18T18:32:49.407Z,1.69
2022-12-18T18:35:53.490Z,1.67
2022-12-18T18:38:20.333Z,1.65
2022-12-18T18:40:51.832Z,1.67
2022-12-18T18:43:20.626Z,1.65
2022-12-18T18:45:50.734Z,1.44
2022-12-18T18:48:20.579Z,1.50
2022-12-18T18:50:57.738Z,1.31
2022-12-18T18:56:50.141Z,1.29
2022-12-18T18:59:30.342Z,1.27
2022-12-18T19:02:05.161Z,1.23
2022-12-18T19:04:46.251Z,1.12
2022-12-18T19:10:06.409Z,1.10
2022-12-18T19:16:26.351Z,0.87
2022-12-18T19:19:10.869Z,0.95
2022-12-18T19:22:00.528Z,0.81
2022-12-18T19:24:31.601Z,0.90
2022-12-18T19:29:43.535Z,0.72
2022-12-18T19:32:16.670Z,0.96
2022-12-18T19:34:56.041Z,0.94
2022-12-18T19:37:26.030Z,0.74
2022-12-18T19:40:12.532Z,0.83
2022-12-18T19:42:52.759Z,0.83
2022-12-18T19:45:22.097Z,0.82
2022-12-18T19:47:54.377Z,0.76
2022-12-18T19:50:31.067Z,0.70
2022-12-18T19:53:08.128Z,0.61
2022-12-18T19:55:43.708Z,0.73
2022-12-18T19:58:27.606Z,0.73
2022-12-18T20:00:56.777Z,0.60
2022-12-18T20:03:53.631Z,0.56
2022-12-18T20:06:28.129Z,0.55
2022-12-18T20:11:55.187Z,0.44
2022-12-18T20:14:26.248Z,0.42
2022-12-18T20:17:09.478Z,0.52
2022-12-18T20:19:55.913Z,0.42
2022-12-18T20:37:46.109Z,0.19
2022-12-18T20:40:58.944Z,0.19
2022-12-18T20:43:42.292Z,0.04
2022-12-18T20:46:16.017Z,-0.03
2022-12-18T20:48:47.156Z,-0.03
2022-12-18T20:51:29.558Z,-0.09
2022-12-18T20:54:00.601Z,-0.04
2022-12-18T20:56:42.313Z,-0.20
2022-12-18T20:59:12.706Z,-0.26
2022-12-18T21:01:55.368Z,-0.33
2022-12-18T21:07:21.820Z,-0.38
2022-12-18T21:18:37.757Z,-0.51
2022-12-18T21:36:48.529Z,-0.73
2022-12-18T22:00:24.613Z,-0.87
2022-12-18T22:03:18.331Z,-0.96
2022-12-18T22:08:47.082Z,-1.13
2022-12-18T22:11:31.164Z,-0.96
2022-12-18T22:14:00.285Z,-0.91
2022-12-18T22:16:29.326Z,-0.97
2022-12-18T22:18:58.140Z,-1.10
2022-12-18T22:21:29.832Z,-1.07
2022-12-18T22:23:59.751Z,-0.99
2022-12-18T22:26:37.873Z,-1.22
2022-12-18T22:29:27.145Z,-1.00
2022-12-18T22:31:55.609Z,-1.10
2022-12-18T22:34:24.579Z,-0.94
2022-12-18T22:36:52.931Z,-0.94
2022-12-18T22:39:27.124Z,-1.03
2022-12-18T22:42:14.047Z,-1.03
2022-12-18T22:44:42.207Z,-0.93
2022-12-18T22:47:10.976Z,-0.89
2022-12-18T22:49:40.317Z,-0.89
2022-12-18T22:52:10.372Z,-0.94
2022-12-18T22:54:38.960Z,-0.88
2022-12-18T22:57:07.247Z,-0.95
2022-12-18T22:59:37.572Z,-0.95
2022-12-18T23:02:07.171Z,-0.93
2022-12-18T23:04:36.934Z,-0.93
2022-12-18T23:07:05.839Z,-0.83
2022-12-18T23:09:34.298Z,-0.69
2022-12-18T23:12:02.852Z,-0.62
2022-12-18T23:14:31.365Z,-0.57
2022-12-18T23:17:00.933Z,-0.53
2022-12-18T23:19:29.166Z,-0.72
2022-12-18T23:21:58.839Z,-0.83
2022-12-18T23:24:27.047Z,-0.80
2022-12-18T23:26:55.158Z,-0.86
2022-12-18T23:29:23.150Z,-0.88
2022-12-18T23:31:51.158Z,-0.97
2022-12-18T23:34:20.533Z,-1.01
2022-12-18T23:36:52.033Z,-0.97
2022-12-18T23:39:29.439Z,-0.91
2022-12-18T23:41:58.403Z,-0.97
2022-12-18T23:44:26.963Z,-0.99
2022-12-18T23:46:55.704Z,-0.88
2022-12-18T23:49:25.483Z,-0.77
2022-12-18T23:51:55.438Z,-0.72
2022-12-18T23:54:32.710Z,-0.75
2022-12-18T23:57:01.933Z,-0.78
2022-12-18T23:59:29.885Z,-0.78
